Time;durP1;ratioP1;P1;durP2;ratioP2;P2;SDS_P1;SDS_P2;PMS_P1;PMS_P2;Temp;Humidity;BMP_temperature;BMP_pressure;BME280_temperature;BME280_humidity;BME280_pressure;Samples;Min_cycle;Max_cycle;Signal;HPM_P1;HPM_P2
2022/07/19 00:01:13;;;;;;;26.77;6.28;;;18.60;99.90;;;;;;6340729;28;20550;-67
2022/07/19 00:04:19;;;;;;;18.95;6.53;;;18.50;99.90;;;;;;6340258;28;20471;-67
2022/07/19 00:07:24;;;;;;;12.95;6.53;;;18.50;99.90;;;;;;6340915;28;20581;-67
2022/07/19 00:10:31;;;;;;;16.15;6.32;;;18.40;99.90;;;;;;6340535;28;20269;-67
2022/07/19 00:13:36;;;;;;;13.35;6.55;;;18.40;99.90;;;;;;6340232;28;20273;-67
2022/07/19 00:16:42;;;;;;;15.82;6.78;;;18.30;99.90;;;;;;6340331;28;20451;-67
2022/07/19 00:19:48;;;;;;;12.77;5.95;;;18.40;99.90;;;;;;6340365;28;20266;-67
2022/07/19 00:22:54;;;;;;;7.57;5.82;;;18.40;99.90;;;;;;6340127;28;20290;-67
2022/07/19 00:26:01;;;;;;;7.63;5.45;;;18.30;99.90;;;;;;6340242;28;20265;-67
2022/07/19 00:29:07;;;;;;;9.43;5.53;;;18.30;99.90;;;;;;6340318;28;20266;-67
2022/07/19 00:32:12;;;;;;;7.15;6.00;;;18.30;99.90;;;;;;6339993;28;20269;-67
2022/07/19 00:35:17;;;;;;;6.72;6.10;;;18.30;99.90;;;;;;6339988;28;20273;-67
2022/07/19 00:38:23;;;;;;;8.98;5.78;;;18.30;99.90;;;;;;6315850;28;20298;-67
2022/07/19 00:41:30;;;;;;;7.47;6.03;;;18.20;99.90;;;;;;6314542;28;20270;-67
2022/07/19 00:44:36;;;;;;;8.73;6.07;;;18.20;99.90;;;;;;6314363;28;20474;-67
2022/07/19 00:47:42;;;;;;;12.98;5.95;;;18.20;99.90;;;;;;6314335;28;20275;-67
2022/07/19 00:50:47;;;;;;;11.52;5.40;;;18.10;99.90;;;;;;6314133;28;20266;-67
2022/07/19 00:53:53;;;;;;;14.35;5.75;;;18.10;99.90;;;;;;6314410;28;20274;-67
2022/07/19 00:57:00;;;;;;;7.50;6.22;;;18.20;99.90;;;;;;6314276;28;20270;-67
2022/07/19 01:00:10;;;;;;;6.95;6.18;;;18.20;99.90;;;;;;6314181;28;20266;-67
2022/07/19 01:03:17;;;;;;;7.30;5.80;;;18.10;99.90;;;;;;6313714;28;20472;-67
2022/07/19 01:06:22;;;;;;;9.05;6.10;;;18.10;99.90;;;;;;6314343;28;20267;-67
2022/07/19 01:09:28;;;;;;;13.80;7.22;;;18.00;99.90;;;;;;6313175;28;20570;-67
2022/07/19 01:12:35;;;;;;;16.08;6.47;;;17.90;99.90;;;;;;6313988;28;20275;-67
2022/07/19 01:15:42;;;;;;;11.35;6.53;;;17.90;99.90;;;;;;6313899;28;20565;-67
2022/07/19 01:18:49;;;;;;;12.65;6.30;;;18.00;99.90;;;;;;6313821;28;20274;-67
2022/07/19 01:21:56;;;;;;;12.35;6.88;;;18.00;99.90;;;;;;6313731;28;20270;-67
2022/07/19 01:25:01;;;;;;;15.85;6.20;;;18.00;99.90;;;;;;6313598;28;20294;-67
2022/07/19 01:28:08;;;;;;;10.00;7.18;;;17.90;99.90;;;;;;6313802;28;20274;-67
2022/07/19 01:31:14;;;;;;;12.85;6.47;;;17.90;99.90;;;;;;6313629;28;20274;-67
2022/07/19 01:34:19;;;;;;;10.65;6.80;;;17.90;99.90;;;;;;6313473;28;20274;-67
2022/07/19 01:37:26;;;;;;;9.35;6.43;;;17.90;99.90;;;;;;6328481;28;20565;-67
2022/07/19 01:40:32;;;;;;;9.38;6.65;;;17.90;99.90;;;;;;6338722;28;20273;-67
2022/07/19 01:43:39;;;;;;;9.07;6.28;;;17.80;99.90;;;;;;6338032;28;20270;-67
2022/07/19 01:46:44;;;;;;;11.35;6.63;;;17.70;99.90;;;;;;6337817;28;20273;-67
2022/07/19 01:49:50;;;;;;;8.40;6.47;;;17.70;99.90;;;;;;6320410;28;20270;-67
2022/07/19 01:52:56;;;;;;;9.15;6.88;;;17.80;99.90;;;;;;6338265;28;20557;-67
2022/07/19 01:56:05;;;;;;;11.40;6.85;;;17.70;99.90;;;;;;6337647;28;20274;-67
2022/07/19 01:59:10;;;;;;;8.43;6.88;;;17.70;99.90;;;;;;6338254;28;20274;-67
2022/07/19 02:02:15;;;;;;;7.38;6.45;;;17.70;99.90;;;;;;6338006;28;20269;-67
2022/07/19 02:05:21;;;;;;;9.63;6.35;;;17.80;99.90;;;;;;6337830;28;20285;-67
2022/07/19 02:08:28;;;;;;;11.20;7.07;;;17.70;99.90;;;;;;6337857;28;20274;-67
2022/07/19 02:11:36;;;;;;;12.48;7.07;;;17.80;99.90;;;;;;6337606;28;20266;-67
2022/07/19 02:14:41;;;;;;;14.88;7.25;;;17.70;99.90;;;;;;6337167;28;20465;-67
2022/07/19 02:17:46;;;;;;;20.77;7.03;;;17.60;99.90;;;;;;6337125;28;20274;-67
2022/07/19 02:20:51;;;;;;;15.85;6.63;;;17.60;99.90;;;;;;6336644;28;20274;-67
2022/07/19 02:23:58;;;;;;;15.48;7.10;;;17.60;99.90;;;;;;6336959;28;20461;-67
2022/07/19 02:27:04;;;;;;;13.93;7.07;;;17.70;99.90;;;;;;6336884;28;20454;-67
2022/07/19 02:30:12;;;;;;;7.65;6.75;;;17.70;99.90;;;;;;6337332;28;20361;-67
2022/07/19 02:33:17;;;;;;;14.85;7.43;;;17.70;99.90;;;;;;6336856;28;20269;-67
2022/07/19 02:36:22;;;;;;;19.45;7.22;;;17.60;99.90;;;;;;6330642;28;20298;-67
2022/07/19 02:39:29;;;;;;;14.45;7.18;;;17.60;99.90;;;;;;6311601;28;20581;-67
2022/07/19 02:42:34;;;;;;;10.18;6.63;;;17.70;99.90;;;;;;6310597;28;20274;-67
2022/07/19 02:45:40;;;;;;;11.45;7.60;;;17.60;99.90;;;;;;6311603;28;20290;-67
2022/07/19 02:48:45;;;;;;;9.27;6.88;;;17.60;99.90;;;;;;6311242;28;20270;-67
2022/07/19 02:51:56;;;;;;;14.23;7.47;;;17.60;99.90;;;;;;6311274;28;20271;-67
2022/07/19 02:55:03;;;;;;;8.27;7.15;;;17.60;99.90;;;;;;6311341;28;20274;-67
2022/07/19 02:58:11;;;;;;;11.35;7.00;;;17.60;99.90;;;;;;6311588;28;20275;-67
2022/07/19 03:01:16;;;;;;;11.60;7.00;;;17.60;99.90;;;;;;6311118;28;20430;-67
2022/07/19 03:04:21;;;;;;;12.68;7.10;;;17.50;99.90;;;;;;6311096;28;20258;-67
2022/07/19 03:07:27;;;;;;;10.63;6.88;;;17.60;99.90;;;;;;6310622;28;20294;-67
2022/07/19 03:10:33;;;;;;;9.05;6.93;;;17.70;99.90;;;;;;6310803;28;20574;-67
2022/07/19 03:13:39;;;;;;;11.20;6.82;;;17.70;99.90;;;;;;6310994;28;20274;-67
2022/07/19 03:16:44;;;;;;;12.63;6.63;;;17.60;99.90;;;;;;6311063;28;20274;-67
2022/07/19 03:19:49;;;;;;;8.90;7.00;;;17.70;99.90;;;;;;6310859;28;20442;-67
2022/07/19 03:22:55;;;;;;;8.48;7.13;;;17.60;99.90;;;;;;6310994;28;20271;-67
2022/07/19 03:26:02;;;;;;;11.40;6.97;;;17.70;99.90;;;;;;6311053;28;20294;-67
2022/07/19 03:29:07;;;;;;;8.02;6.65;;;17.70;99.90;;;;;;6311047;28;20266;-67
2022/07/19 03:32:12;;;;;;;7.18;6.43;;;17.70;99.90;;;;;;6310910;28;20334;-67
2022/07/19 03:35:19;;;;;;;8.32;6.20;;;17.80;99.90;;;;;;6311067;28;20573;-67
2022/07/19 03:38:24;;;;;;;7.18;6.45;;;17.90;99.90;;;;;;6333755;28;20298;-67
2022/07/19 03:41:31;;;;;;;12.40;7.05;;;17.90;99.90;;;;;;6335807;28;20269;-67
2022/07/19 03:44:36;;;;;;;9.75;6.65;;;17.90;99.90;;;;;;6335934;28;20269;-67
2022/07/19 03:47:41;;;;;;;6.95;6.38;;;17.90;99.90;;;;;;6335583;28;20294;-67
2022/07/19 03:50:47;;;;;;;9.55;6.35;;;17.90;99.90;;;;;;6335830;28;20460;-67
2022/07/19 03:53:52;;;;;;;10.65;6.75;;;18.00;99.90;;;;;;6335835;28;20269;-67
2022/07/19 03:56:58;;;;;;;7.20;6.15;;;18.00;99.90;;;;;;6335934;28;20273;-67
2022/07/19 04:00:06;;;;;;;7.85;6.50;;;18.10;99.90;;;;;;6335392;28;20269;-67
2022/07/19 04:03:17;;;;;;;7.97;6.25;;;18.10;99.90;;;;;;6335495;28;20270;-67
2022/07/19 04:06:22;;;;;;;11.23;6.90;;;18.10;99.90;;;;;;6335132;28;20282;-67
2022/07/19 04:09:27;;;;;;;7.13;6.50;;;18.20;99.90;;;;;;6335734;28;20274;-67
2022/07/19 04:12:34;;;;;;;11.10;6.55;;;18.20;99.90;;;;;;6335433;28;20274;-67
2022/07/19 04:15:39;;;;;;;7.70;6.63;;;18.20;99.90;;;;;;6335750;28;20265;-67
2022/07/19 04:18:50;;;;;;;9.60;6.72;;;18.20;99.90;;;;;;6335220;28;20278;-66
2022/07/19 04:21:55;;;;;;;7.22;5.85;;;18.20;99.90;;;;;;6335267;28;20274;-66
2022/07/19 04:25:02;;;;;;;8.93;6.15;;;18.20;99.90;;;;;;6335595;28;20290;-66
2022/07/19 04:28:10;;;;;;;10.52;6.10;;;18.30;99.90;;;;;;6335290;28;20472;-66
2022/07/19 04:31:16;;;;;;;10.20;6.68;;;18.30;99.90;;;;;;6335284;28;20265;-66
2022/07/19 04:34:27;;;;;;;9.55;6.38;;;18.40;99.90;;;;;;6335435;28;20557;-66
2022/07/19 04:37:32;;;;;;;7.32;6.05;;;18.40;99.90;;;;;;6335404;28;20297;-66
2022/07/19 04:40:38;;;;;;;13.70;6.78;;;18.40;99.90;;;;;;6334859;28;20270;-67
2022/07/19 04:43:44;;;;;;;8.43;6.05;;;18.40;99.90;;;;;;6335419;28;20274;-66
2022/07/19 04:46:50;;;;;;;7.00;6.38;;;18.50;99.90;;;;;;6339443;28;20294;-67
2022/07/19 04:49:55;;;;;;;8.77;6.13;;;18.50;99.90;;;;;;6340212;28;20269;-66
2022/07/19 04:53:00;;;;;;;8.07;6.07;;;18.50;99.90;;;;;;6339642;28;20269;-67
2022/07/19 04:56:06;;;;;;;7.38;6.43;;;18.60;99.90;;;;;;6339699;28;20556;-66
2022/07/19 04:59:13;;;;;;;7.70;6.35;;;18.60;99.90;;;;;;6339303;28;20261;-67
2022/07/19 05:02:18;;;;;;;10.50;6.60;;;18.60;99.90;;;;;;6338574;28;20290;-66
2022/07/19 05:05:24;;;;;;;10.05;6.07;;;18.70;99.90;;;;;;6339162;28;20266;-66
2022/07/19 05:08:29;;;;;;;7.60;6.38;;;18.70;99.90;;;;;;6339154;28;20294;-66
2022/07/19 05:11:34;;;;;;;7.93;5.78;;;18.70;99.90;;;;;;6338310;28;20432;-66
2022/07/19 05:14:41;;;;;;;8.52;6.18;;;18.70;99.90;;;;;;6339332;28;20270;-67
2022/07/19 05:17:46;;;;;;;11.45;6.72;;;18.80;99.90;;;;;;6339060;28;20274;-66
2022/07/19 05:20:52;;;;;;;7.65;6.30;;;18.80;99.90;;;;;;6338600;28;20298;-67
2022/07/19 05:23:57;;;;;;;7.05;5.97;;;18.90;99.90;;;;;;6338432;28;20286;-67
2022/07/19 05:27:02;;;;;;;9.48;6.15;;;18.90;99.90;;;;;;6338569;28;20296;-66
2022/07/19 05:30:10;;;;;;;7.30;6.25;;;18.90;99.90;;;;;;6338656;28;20270;-67
2022/07/19 05:33:16;;;;;;;9.00;5.80;;;19.00;99.90;;;;;;6338793;28;20266;-67
2022/07/19 05:36:21;;;;;;;9.82;6.20;;;19.10;99.90;;;;;;6338299;28;20581;-67
2022/07/19 05:39:26;;;;;;;6.85;6.25;;;19.10;99.90;;;;;;6338643;28;20273;-66
2022/07/19 05:42:31;;;;;;;7.00;6.30;;;19.20;99.90;;;;;;6337767;28;20274;-66
2022/07/19 05:45:37;;;;;;;9.30;6.00;;;19.40;99.90;;;;;;6338276;28;20274;-66
2022/07/19 05:48:43;;;;;;;6.85;6.18;;;19.50;99.90;;;;;;6338319;28;20290;-66
2022/07/19 05:51:49;;;;;;;9.32;5.93;;;19.70;99.90;;;;;;6338000;28;20292;-66
2022/07/19 05:54:54;;;;;;;6.28;5.75;;;19.90;99.90;;;;;;6338229;28;20270;-66
2022/07/19 05:57:59;;;;;;;6.50;5.90;;;20.00;99.90;;;;;;6338003;28;20273;-66
2022/07/19 06:01:18;;;;;;;6.70;5.93;;;20.10;99.90;;;;;;6337339;28;20455;-67
2022/07/19 06:04:24;;;;;;;6.88;5.70;;;20.30;99.90;;;;;;6337349;28;20262;-66
2022/07/19 06:07:30;;;;;;;8.80;6.40;;;20.40;99.90;;;;;;6337992;28;20596;-66
2022/07/19 06:10:36;;;;;;;7.53;6.07;;;20.60;99.90;;;;;;6337652;28;20274;-67
2022/07/19 06:13:42;;;;;;;7.10;5.97;;;20.70;99.90;;;;;;6337376;28;20275;-67
2022/07/19 06:16:49;;;;;;;8.85;5.65;;;20.80;99.90;;;;;;6337633;28;20265;-67
2022/07/19 06:19:54;;;;;;;10.07;5.97;;;20.80;99.90;;;;;;6337496;28;20278;-67
2022/07/19 06:22:59;;;;;;;8.98;5.75;;;20.90;99.90;;;;;;6337317;28;20269;-67
2022/07/19 06:26:05;;;;;;;5.93;5.50;;;21.10;99.90;;;;;;6337534;28;20270;-67
2022/07/19 06:29:11;;;;;;;6.57;5.97;;;21.00;99.90;;;;;;6337158;28;20593;-67
2022/07/19 06:32:18;;;;;;;7.15;5.35;;;21.10;99.90;;;;;;6337294;28;20268;-67
2022/07/19 06:35:23;;;;;;;6.70;6.05;;;21.20;99.90;;;;;;6337317;28;20270;-67
2022/07/19 06:38:28;;;;;;;6.25;5.47;;;21.40;99.90;;;;;;6337201;28;20306;-67
2022/07/19 06:41:34;;;;;;;7.57;5.63;;;21.40;99.90;;;;;;6336673;28;20270;-67
2022/07/19 06:44:39;;;;;;;11.20;6.47;;;21.50;99.90;;;;;;6336570;28;20274;-67
2022/07/19 06:47:46;;;;;;;6.82;5.82;;;21.40;99.90;;;;;;6336826;28;20269;-67
2022/07/19 06:50:51;;;;;;;6.47;5.88;;;21.50;99.90;;;;;;6336813;28;20274;-67
2022/07/19 06:53:56;;;;;;;6.65;6.05;;;21.50;99.90;;;;;;6335912;28;20269;-67
2022/07/19 06:57:01;;;;;;;6.60;6.00;;;21.60;99.90;;;;;;6336784;28;20565;-67
2022/07/19 07:00:09;;;;;;;13.88;6.60;;;21.70;99.90;;;;;;6336809;28;20273;-67
2022/07/19 07:03:21;;;;;;;8.40;6.18;;;21.70;99.90;;;;;;6336532;28;20444;-67
2022/07/19 07:06:26;;;;;;;7.70;6.40;;;21.70;99.90;;;;;;6335350;28;20262;-67
2022/07/19 07:09:31;;;;;;;8.57;6.22;;;21.70;99.90;;;;;;6335492;28;20293;-67
2022/07/19 07:12:37;;;;;;;10.02;6.70;;;21.70;99.90;;;;;;6336476;28;20269;-67
2022/07/19 07:15:43;;;;;;;10.80;6.40;;;21.80;99.90;;;;;;6335770;28;20577;-67
2022/07/19 07:18:50;;;;;;;6.32;5.93;;;21.90;99.90;;;;;;6336256;28;20278;-67
2022/07/19 07:21:57;;;;;;;6.40;5.90;;;21.80;99.90;;;;;;6336016;28;20270;-67
2022/07/19 07:25:02;;;;;;;6.78;6.18;;;21.80;99.90;;;;;;6335887;28;20270;-66
2022/07/19 07:28:10;;;;;;;8.23;6.38;;;21.80;99.90;;;;;;6336051;28;20460;-66
2022/07/19 07:31:15;;;;;;;6.95;6.35;;;21.90;99.90;;;;;;6335733;28;20270;-66
2022/07/19 07:34:22;;;;;;;5.88;5.38;;;22.00;99.90;;;;;;6336055;28;20269;-67
2022/07/19 07:37:27;;;;;;;7.97;6.43;;;22.00;99.90;;;;;;6335142;28;20297;-68
2022/07/19 07:40:32;;;;;;;8.73;6.20;;;22.10;99.90;;;;;;6335286;28;20276;-67
2022/07/19 07:43:38;;;;;;;8.50;6.38;;;22.10;99.90;;;;;;6335929;28;20270;-67
2022/07/19 07:46:43;;;;;;;6.38;5.88;;;22.00;99.90;;;;;;6335637;28;20270;-67
2022/07/19 07:49:50;;;;;;;6.72;6.10;;;22.00;99.90;;;;;;6335597;28;20289;-68
2022/07/19 07:52:55;;;;;;;6.93;6.25;;;22.00;99.90;;;;;;6335293;28;20274;-67
2022/07/19 07:56:01;;;;;;;8.05;5.65;;;22.20;99.90;;;;;;6334914;28;20277;-66
2022/07/19 07:59:12;;;;;;;5.72;5.22;;;22.30;99.90;;;;;;6335697;28;20553;-66
2022/07/19 08:02:17;;;;;;;8.23;5.45;;;22.30;99.90;;;;;;6335194;28;20274;-66
2022/07/19 08:05:24;;;;;;;5.07;4.82;;;22.40;99.90;;;;;;6323505;28;20281;-67
2022/07/19 08:08:29;;;;;;;5.25;4.93;;;22.40;99.90;;;;;;6309800;28;20271;-67
2022/07/19 08:11:35;;;;;;;6.30;5.70;;;22.30;99.90;;;;;;6309875;28;20290;-67
2022/07/19 08:14:40;;;;;;;5.22;4.93;;;22.50;99.90;;;;;;6310357;28;20271;-67
2022/07/19 08:17:46;;;;;;;4.63;4.30;;;22.50;99.90;;;;;;6309889;28;20270;-67
2022/07/19 08:20:52;;;;;;;5.28;5.07;;;22.40;99.90;;;;;;6313521;28;20278;-68
2022/07/19 08:23:57;;;;;;;4.80;4.50;;;22.50;99.90;;;;;;6314765;28;20270;-68
2022/07/19 08:27:02;;;;;;;4.60;4.38;;;22.30;99.90;;;;;;6315219;28;20275;-68
2022/07/19 08:30:10;;;;;;;4.47;4.20;;;22.00;99.90;;;;;;6314718;28;20290;-68
2022/07/19 08:33:18;;;;;;;4.40;4.10;;;21.80;99.90;;;;;;6315023;28;20271;-68
2022/07/19 08:36:25;;;;;;;4.90;4.60;;;21.80;99.90;;;;;;6319103;28;20302;-68
2022/07/19 08:39:30;;;;;;;4.63;4.20;;;21.80;99.90;;;;;;6339842;28;20293;-68
2022/07/19 08:42:36;;;;;;;4.00;3.80;;;21.90;99.90;;;;;;6339791;28;20270;-68
2022/07/19 08:45:41;;;;;;;3.65;3.53;;;21.90;99.90;;;;;;6339472;28;20455;-67
2022/07/19 08:48:47;;;;;;;3.47;3.38;;;21.80;99.90;;;;;;6339613;28;20273;-68
2022/07/19 08:51:54;;;;;;;3.95;3.47;;;21.70;99.90;;;;;;6338797;28;20581;-68
2022/07/19 08:55:00;;;;;;;3.38;3.28;;;21.70;99.90;;;;;;6339340;28;20270;-68
2022/07/19 08:58:06;;;;;;;4.03;3.67;;;21.70;99.90;;;;;;6339454;28;20269;-68
2022/07/19 09:01:11;;;;;;;3.63;3.53;;;21.60;99.90;;;;;;6339348;28;20277;-68
2022/07/19 09:04:21;;;;;;;3.40;3.30;;;21.50;99.90;;;;;;6339269;28;20269;-68
2022/07/19 09:07:27;;;;;;;3.83;3.72;;;21.40;99.90;;;;;;6338884;28;20265;-68
2022/07/19 09:10:35;;;;;;;3.83;3.72;;;21.50;99.90;;;;;;6339094;28;20286;-67
2022/07/19 09:13:40;;;;;;;4.30;4.10;;;21.50;99.90;;;;;;6338914;28;20274;-66
2022/07/19 09:17:02;;;;;;;3.40;3.30;;;21.50;99.90;;;;;;6338266;28;20393;-66
2022/07/19 09:20:10;;;;;;;3.08;3.08;;;21.40;99.90;;;;;;6338820;28;20561;-66
2022/07/19 09:23:18;;;;;;;2.78;2.67;;;21.40;99.90;;;;;;6338260;28;20289;-66
2022/07/19 09:26:23;;;;;;;3.97;3.00;;;21.40;99.90;;;;;;6338228;28;20274;-66
2022/07/19 09:29:30;;;;;;;3.40;3.30;;;21.40;99.90;;;;;;6338431;28;20270;-66
2022/07/19 09:32:35;;;;;;;3.78;3.58;;;21.50;99.90;;;;;;6338522;28;20289;-66
2022/07/19 09:35:43;;;;;;;2.95;2.92;;;21.50;99.90;;;;;;6338286;28;20323;-67
2022/07/19 09:38:53;;;;;;;3.10;2.97;;;21.50;99.90;;;;;;6338508;28;20294;-67
2022/07/19 09:41:58;;;;;;;2.85;2.75;;;21.50;99.90;;;;;;6337989;28;20274;-67
2022/07/19 09:45:07;;;;;;;3.00;2.90;;;21.50;99.90;;;;;;6337978;28;20266;-67
2022/07/19 09:48:13;;;;;;;3.67;3.10;;;21.50;99.90;;;;;;6337538;28;20357;-67
2022/07/19 09:51:18;;;;;;;3.08;2.92;;;21.50;99.90;;;;;;6338041;28;20289;-67
2022/07/19 09:54:27;;;;;;;3.15;2.95;;;21.60;99.90;;;;;;6337875;28;20266;-67
2022/07/19 09:57:35;;;;;;;3.00;2.90;;;21.50;99.90;;;;;;6337914;28;20266;-67
2022/07/19 10:00:41;;;;;;;2.85;2.75;;;21.60;99.90;;;;;;6336721;28;20431;-67
2022/07/19 10:03:46;;;;;;;2.92;2.78;;;21.60;99.90;;;;;;6335314;28;20322;-67
2022/07/19 10:06:56;;;;;;;3.53;3.25;;;21.70;99.90;;;;;;6335883;28;20266;-67
2022/07/19 10:10:04;;;;;;;2.92;2.83;;;21.70;99.90;;;;;;6335620;28;20265;-67
2022/07/19 10:13:11;;;;;;;5.82;2.90;;;21.70;99.90;;;;;;6337142;28;20483;-67
2022/07/19 10:16:58;;;;;;;2.47;2.40;;;21.70;99.90;;;;;;6337247;28;20270;-68
2022/07/19 10:20:05;;;;;;;2.50;2.40;;;21.80;99.90;;;;;;6337050;28;20274;-66
2022/07/19 10:23:12;;;;;;;3.70;3.45;;;21.80;99.90;;;;;;6337098;28;20269;-66
2022/07/19 10:26:35;;;;;;;2.38;2.38;;;21.90;99.90;;;;;;6336771;28;20553;-67
2022/07/19 10:29:41;;;;;;;2.22;2.22;;;22.00;99.80;;;;;;6336801;28;20266;-67
2022/07/19 10:32:47;;;;;;;2.70;2.70;;;22.20;99.70;;;;;;6336885;28;20290;-67
2022/07/19 10:35:53;;;;;;;2.15;2.15;;;22.20;99.20;;;;;;6333170;28;20270;-66
2022/07/19 10:39:26;;;;;;;2.33;2.33;;;22.20;99.20;;;;;;6331743;28;20269;-66
2022/07/19 10:42:35;;;;;;;2.55;2.45;;;22.30;99.70;;;;;;6330953;28;20277;-66
2022/07/19 10:45:44;;;;;;;2.13;2.13;;;22.40;99.20;;;;;;6336598;28;20459;-67
2022/07/19 10:48:51;;;;;;;2.42;2.30;;;22.50;99.50;;;;;;6336003;28;20266;-68
2022/07/19 10:51:56;;;;;;;2.10;2.10;;;22.60;99.20;;;;;;6336164;28;20285;-66
2022/07/19 10:55:27;;;;;;;2.13;2.08;;;22.60;99.00;;;;;;6335773;28;20269;-67
2022/07/19 10:58:50;;;;;;;1.83;1.75;;;22.70;98.80;;;;;;6336302;28;20565;-66
2022/07/19 11:02:00;;;;;;;2.30;2.10;;;22.70;98.90;;;;;;6336318;28;20274;-66
2022/07/19 11:05:27;;;;;;;2.10;2.10;;;22.70;98.70;;;;;;6335686;28;20264;-67
2022/07/19 11:08:34;;;;;;;2.45;2.33;;;22.70;98.70;;;;;;6336323;28;20274;-66
2022/07/19 11:11:39;;;;;;;2.30;2.20;;;22.80;99.10;;;;;;6335584;28;20289;-66
2022/07/19 11:14:46;;;;;;;2.15;2.05;;;22.70;98.10;;;;;;6335698;28;20459;-67
2022/07/19 11:18:18;;;;;;;2.60;2.40;;;22.80;98.50;;;;;;6335362;28;20269;-67
2022/07/19 11:21:23;;;;;;;2.25;2.20;;;23.10;98.60;;;;;;6335784;28;20281;-66
2022/07/19 11:24:28;;;;;;;2.70;2.60;;;23.00;98.30;;;;;;6336030;28;20342;-67
2022/07/19 11:27:34;;;;;;;1.98;1.98;;;23.00;98.00;;;;;;6335487;28;20357;-67
2022/07/19 11:30:41;;;;;;;2.10;2.00;;;23.00;98.20;;;;;;6336050;28;20271;-67
2022/07/19 11:33:49;;;;;;;2.28;2.28;;;23.00;97.80;;;;;;6335700;28;20289;-66
2022/07/19 11:36:58;;;;;;;2.10;2.05;;;23.00;97.90;;;;;;6335726;28;20580;-67
2022/07/19 11:40:05;;;;;;;2.28;2.22;;;23.10;97.60;;;;;;6335684;28;20274;-67
2022/07/19 11:43:12;;;;;;;2.00;2.00;;;23.30;98.10;;;;;;6335317;28;20270;-67
2022/07/19 11:46:24;;;;;;;2.35;2.25;;;23.50;97.40;;;;;;6335664;28;20462;-67
2022/07/19 11:49:39;;;;;;;2.67;2.47;;;23.60;97.10;;;;;;6334996;28;20578;-67
2022/07/19 11:52:52;;;;;;;2.30;2.20;;;23.60;96.40;;;;;;6335338;28;20290;-67
2022/07/19 11:55:57;;;;;;;4.03;2.70;;;23.40;97.10;;;;;;6340666;28;20274;-67
2022/07/19 11:59:05;;;;;;;2.38;2.22;;;23.30;96.80;;;;;;6340480;28;20270;-68
2022/07/19 12:02:12;;;;;;;1.83;1.80;;;23.30;96.20;;;;;;6340214;28;20277;-67
2022/07/19 12:05:18;;;;;;;2.13;2.10;;;23.20;96.80;;;;;;6328544;28;20266;-67
2022/07/19 12:08:31;;;;;;;1.83;1.83;;;23.30;96.80;;;;;;6338969;28;20274;-67
2022/07/19 12:11:42;;;;;;;2.05;1.85;;;23.20;96.30;;;;;;6339808;28;20270;-66
2022/07/19 12:14:48;;;;;;;2.28;2.28;;;23.20;96.60;;;;;;6340238;28;20273;-67
2022/07/19 12:17:58;;;;;;;1.90;1.80;;;23.30;96.90;;;;;;6340260;28;20441;-68
2022/07/19 12:21:28;;;;;;;2.28;2.28;;;23.20;96.50;;;;;;6339906;28;20270;-68
2022/07/19 12:24:45;;;;;;;2.10;2.00;;;23.30;95.90;;;;;;6339859;28;20269;-68
2022/07/19 12:28:00;;;;;;;1.95;1.88;;;23.40;96.30;;;;;;6340099;28;20514;-68
2022/07/19 12:31:06;;;;;;;2.88;2.10;;;23.60;96.00;;;;;;6339778;28;20270;-68
2022/07/19 12:34:13;;;;;;;1.83;1.83;;;23.80;95.50;;;;;;6339643;28;20285;-68
2022/07/19 12:37:21;;;;;;;6.53;2.20;;;23.90;95.70;;;;;;6339473;28;20306;-68
2022/07/19 12:40:45;;;;;;;1.75;1.75;;;23.60;95.20;;;;;;6339517;28;20270;-68
2022/07/19 12:43:51;;;;;;;2.22;2.03;;;23.50;95.40;;;;;;6339559;28;20293;-68
2022/07/19 12:47:03;;;;;;;1.70;1.60;;;23.40;95.50;;;;;;6339615;28;20274;-68
2022/07/19 12:50:32;;;;;;;3.13;1.92;;;23.50;95.70;;;;;;6339504;28;20270;-68
2022/07/19 12:53:37;;;;;;;1.75;1.67;;;23.50;95.40;;;;;;6339527;28;20294;-67
2022/07/19 12:56:43;;;;;;;2.78;1.77;;;23.50;95.70;;;;;;6339657;28;20277;-68
2022/07/19 12:59:48;;;;;;;2.00;1.90;;;23.40;95.40;;;;;;6339159;28;20289;-68
2022/07/19 13:02:54;;;;;;;1.60;1.60;;;23.50;95.70;;;;;;6339116;28;20278;-68
2022/07/19 13:06:01;;;;;;;2.78;1.80;;;23.50;95.20;;;;;;6321286;28;20554;-68
2022/07/19 13:09:07;;;;;;;4.63;2.90;;;23.50;95.50;;;;;;6314144;28;20275;-68
2022/07/19 13:12:13;;;;;;;2.78;2.40;;;23.60;95.30;;;;;;6313460;28;20398;-68
2022/07/19 13:15:19;;;;;;;2.13;1.95;;;23.70;95.50;;;;;;6313651;28;20290;-68
2022/07/19 13:18:24;;;;;;;1.88;1.73;;;23.70;94.80;;;;;;6314105;28;20270;-67
2022/07/19 13:21:30;;;;;;;1.63;1.63;;;23.60;95.10;;;;;;6313242;28;20286;-67
2022/07/19 13:24:38;;;;;;;1.67;1.48;;;23.60;95.20;;;;;;6313729;28;20535;-67
2022/07/19 13:28:05;;;;;;;1.45;1.45;;;23.60;95.00;;;;;;6313526;28;20271;-67
2022/07/19 13:31:16;;;;;;;1.30;1.30;;;23.60;94.80;;;;;;6313319;28;20279;-67
2022/07/19 13:34:23;;;;;;;1.30;1.30;;;23.60;95.20;;;;;;6313562;28;20294;-67
2022/07/19 13:37:30;;;;;;;2.90;2.67;;;23.40;95.30;;;;;;6326609;28;20295;-67
2022/07/19 13:40:35;;;;;;;4.25;1.70;;;23.30;95.80;;;;;;6337538;28;20270;-67
2022/07/19 13:43:41;;;;;;;1.55;1.55;;;23.30;95.50;;;;;;6338000;28;20270;-67
2022/07/19 13:46:46;;;;;;;2.25;1.90;;;23.20;95.90;;;;;;6336909;28;20270;-67
2022/07/19 13:49:52;;;;;;;2.20;2.10;;;23.30;96.90;;;;;;6337668;28;20584;-67
2022/07/19 13:52:59;;;;;;;7.25;4.15;;;23.30;97.60;;;;;;6337790;28;20290;-68
2022/07/19 13:56:06;;;;;;;2.38;2.25;;;23.50;97.80;;;;;;6337400;28;20604;-67
2022/07/19 13:59:23;;;;;;;8.57;2.50;;;23.50;97.80;;;;;;6337406;28;20270;-67
2022/07/19 14:02:28;;;;;;;3.30;2.10;;;23.40;97.70;;;;;;6337535;28;20553;-68
2022/07/19 14:05:38;;;;;;;2.00;1.90;;;23.30;97.40;;;;;;6337115;28;20274;-67
2022/07/19 14:08:45;;;;;;;2.00;1.95;;;23.10;97.30;;;;;;6337601;28;20333;-68
2022/07/19 14:11:51;;;;;;;2.20;2.10;;;23.10;97.40;;;;;;6337418;28;20275;-68
2022/07/19 14:14:56;;;;;;;2.60;1.45;;;23.10;97.40;;;;;;6336857;28;20289;-68
2022/07/19 14:18:08;;;;;;;1.90;1.80;;;23.20;97.20;;;;;;6336375;28;20275;-68
2022/07/19 14:21:13;;;;;;;2.08;1.70;;;23.30;97.30;;;;;;6336956;28;20438;-68
2022/07/19 14:24:20;;;;;;;1.60;1.50;;;23.60;96.60;;;;;;6337170;28;20277;-68
2022/07/19 14:27:25;;;;;;;2.22;1.48;;;23.60;96.70;;;;;;6336844;28;20269;-68
2022/07/19 14:30:30;;;;;;;1.50;1.50;;;23.50;97.10;;;;;;6337171;28;20269;-67
2022/07/19 14:33:37;;;;;;;2.00;1.92;;;23.50;96.80;;;;;;6336887;28;20557;-68
2022/07/19 14:36:42;;;;;;;2.40;1.70;;;23.40;97.00;;;;;;6337183;28;20302;-68
2022/07/19 14:39:55;;;;;;;4.43;1.40;;;23.30;97.00;;;;;;6336756;28;20444;-68
2022/07/19 14:43:00;;;;;;;3.85;3.55;;;23.00;97.50;;;;;;6337127;28;20289;-68
2022/07/19 14:46:05;;;;;;;1.70;1.70;;;23.00;96.90;;;;;;6336627;28;20273;-68
2022/07/19 14:49:11;;;;;;;1.27;1.27;;;22.90;97.20;;;;;;6336691;28;20266;-68
2022/07/19 14:52:17;;;;;;;1.52;1.42;;;23.00;96.50;;;;;;6336911;28;20269;-68
2022/07/19 14:55:23;;;;;;;1.25;1.25;;;22.90;95.90;;;;;;6336469;28;20499;-67
2022/07/19 14:58:29;;;;;;;1.55;1.52;;;22.90;95.60;;;;;;6336010;28;20452;-68
2022/07/19 15:01:34;;;;;;;1.30;1.30;;;22.80;95.80;;;;;;6336273;28;20274;-67
2022/07/19 15:04:39;;;;;;;1.02;1.02;;;22.70;95.60;;;;;;6330462;28;20262;-67
2022/07/19 15:07:44;;;;;;;1.00;1.00;;;22.60;95.80;;;;;;6310982;28;20267;-67
2022/07/19 15:10:51;;;;;;;2.60;1.00;;;22.40;95.70;;;;;;6311413;28;20274;-67
2022/07/19 15:13:57;;;;;;;1.23;1.10;;;22.40;94.60;;;;;;6310946;28;20553;-67
2022/07/19 15:17:04;;;;;;;2.78;1.10;;;22.40;93.70;;;;;;6311235;28;20294;-68
2022/07/19 15:20:11;;;;;;;1.50;1.40;;;22.50;94.00;;;;;;6311004;28;20520;-67
2022/07/19 15:23:16;;;;;;;7.72;2.72;;;22.60;94.00;;;;;;6310984;28;20266;-68
2022/07/19 15:26:23;;;;;;;5.10;2.50;;;22.70;93.20;;;;;;6311063;28;20278;-68
2022/07/19 15:29:28;;;;;;;1.13;1.13;;;22.80;92.40;;;;;;6310286;28;20275;-68
2022/07/19 15:32:37;;;;;;;1.83;1.70;;;22.90;91.80;;;;;;6311076;28;20274;-67
2022/07/19 15:35:42;;;;;;;2.70;1.17;;;22.90;91.00;;;;;;6310755;28;20291;-68
2022/07/19 15:38:48;;;;;;;1.50;1.40;;;22.90;91.00;;;;;;6334705;28;20410;-68
2022/07/19 15:41:55;;;;;;;1.40;1.30;;;23.00;90.80;;;;;;6335742;28;20577;-68
2022/07/19 15:45:00;;;;;;;1.13;1.00;;;23.00;90.00;;;;;;6335692;28;20557;-68
2022/07/19 15:48:06;;;;;;;6.35;1.50;;;23.10;89.30;;;;;;6335903;28;20274;-67
2022/07/19 15:51:12;;;;;;;3.47;1.67;;;23.10;88.90;;;;;;6335834;28;20270;-67
2022/07/19 15:54:17;;;;;;;2.83;1.10;;;23.20;89.80;;;;;;6335596;28;20282;-67
2022/07/19 15:57:24;;;;;;;2.25;1.10;;;23.20;89.40;;;;;;6335615;28;20285;-67
2022/07/19 16:00:31;;;;;;;3.85;1.08;;;23.20;89.40;;;;;;6335152;28;20489;-67
2022/07/19 16:03:36;;;;;;;0.90;0.90;;;23.30;87.50;;;;;;6335137;28;20270;-67
2022/07/19 16:06:42;;;;;;;5.57;2.50;;;23.10;86.70;;;;;;6335446;28;20289;-67
2022/07/19 16:09:47;;;;;;;2.90;1.60;;;23.20;86.50;;;;;;6335465;28;20270;-67
2022/07/19 16:12:53;;;;;;;2.05;2.05;;;23.10;85.50;;;;;;6335017;28;20273;-66